Time,TemperatureF,DewpointF,PressureIn,WindDirection,WindDirectionDegrees,WindSpeedMPH,WindSpeedGustMPH,Humidity,HourlyPrecipIn,Conditions,Clouds,dailyrainin,SoftwareType,DateUTC
2013-06-25 00:03:00,66.0,65.4,29.86,SSW,202,2.2,-999.0,98,-99.99,,,0.00,Acu-Link.com,2013-06-25 04:03:00,
2013-06-25 00:18:00,66.6,66.0,29.86,SW,225,1.1,-999.0,98,-99.99,,,0.00,Acu-Link.com,2013-06-25 04:18:00,
2013-06-25 00:33:00,66.9,66.3,29.86,SSE,157,0.0,-999.0,98,-99.99,,,0.00,Acu-Link.com,2013-06-25 04:33:00,
2013-06-25 00:48:00,67.1,66.5,29.85,SE,135,1.7,-999.0,98,-99.99,,,0.00,Acu-Link.com,2013-06-25 04:48:00,
2013-06-25 01:03:00,66.9,66.3,29.84,WSW,247,1.1,-999.0,98,-99.99,,,0.00,Acu-Link.com,2013-06-25 05:03:00,
2013-06-25 01:18:00,66.7,66.1,29.84,SSW,202,2.7,-999.0,98,-99.99,,,0.00,Acu-Link.com,2013-06-25 05:18:00,
2013-06-25 01:33:00,66.9,66.3,29.83,SW,225,1.7,-999.0,98,-99.99,,,0.00,Acu-Link.com,2013-06-25 05:33:00,
2013-06-25 01:48:00,66.4,65.8,29.83,SSE,157,2.2,-999.0,98,-99.99,,,0.00,Acu-Link.com,2013-06-25 05:48:00,
2013-06-25 02:03:00,66.6,66.0,29.83,SW,225,2.2,-999.0,98,-99.99,,,0.00,Acu-Link.com,2013-06-25 06:03:00,
2013-06-25 02:18:00,66.7,66.1,29.82,South,180,0.0,-999.0,98,-99.99,,,0.00,Acu-Link.com,2013-06-25 06:18:00,
2013-06-25 02:34:00,66.7,66.1,29.82,NNE,22,2.2,-999.0,98,-99.99,,,0.00,Acu-Link.com,2013-06-25 06:34:00,
2013-06-25 02:49:00,66.9,66.3,29.83,SSW,202,2.2,-999.0,98,-99.99,,,0.00,Acu-Link.com,2013-06-25 06:49:00,
2013-06-25 03:04:00,66.6,66.0,29.81,NNE,22,1.1,-999.0,98,-99.99,,,0.00,Acu-Link.com,2013-06-25 07:04:00,
2013-06-25 03:19:00,66.4,65.8,29.82,South,180,2.2,-999.0,98,-99.99,,,0.00,Acu-Link.com,2013-06-25 07:19:00,
2013-06-25 03:34:00,66.4,65.8,29.82,SSW,202,2.2,-999.0,98,-99.99,,,0.00,Acu-Link.com,2013-06-25 07:34:00,
2013-06-25 03:49:00,66.0,65.4,29.81,ESE,112,0.0,-999.0,98,-99.99,,,0.00,Acu-Link.com,2013-06-25 07:49:00,
2013-06-25 04:05:00,66.0,65.4,29.81,ESE,112,1.7,-999.0,98,-99.99,,,0.00,Acu-Link.com,2013-06-25 08:05:00,
2013-06-25 04:21:00,66.0,65.4,29.81,ESE,112,0.0,-999.0,98,-99.99,,,0.00,Acu-Link.com,2013-06-25 08:21:00,
2013-06-25 04:36:00,65.7,65.1,29.81,NNE,22,0.0,-999.0,98,-99.99,,,0.00,Acu-Link.com,2013-06-25 08:36:00,
2013-06-25 04:51:00,65.3,64.7,29.81,NE,45,0.0,-999.0,98,-99.99,,,0.00,Acu-Link.com,2013-06-25 08:51:00,
2013-06-25 05:06:00,64.6,64.0,29.81,WNW,292,0.0,-999.0,98,-99.99,,,0.00,Acu-Link.com,2013-06-25 09:06:00,
2013-06-25 05:21:00,64.0,63.4,29.81,East,90,0.0,-999.0,98,-99.99,,,0.00,Acu-Link.com,2013-06-25 09:21:00,
2013-06-25 05:36:00,63.9,63.3,29.82,SE,135,0.0,-999.0,98,-99.99,,,0.00,Acu-Link.com,2013-06-25 09:36:00,
2013-06-25 05:52:00,64.0,63.4,29.81,NE,45,0.0,-999.0,98,-99.99,,,0.00,Acu-Link.com,2013-06-25 09:52:00,
2013-06-25 06:07:00,64.4,63.8,29.81,East,90,0.0,-999.0,98,-99.99,,,0.00,Acu-Link.com,2013-06-25 10:07:00,
2013-06-25 06:22:00,64.6,64.0,29.81,NE,45,0.0,-999.0,98,-99.99,,,0.00,Acu-Link.com,2013-06-25 10:22:00,
2013-06-25 06:37:00,65.3,64.7,29.79,NE,45,0.0,-999.0,98,-99.99,,,0.00,Acu-Link.com,2013-06-25 10:37:00,
2013-06-25 06:52:00,66.0,65.4,29.79,NNE,22,0.0,-999.0,98,-99.99,,,0.00,Acu-Link.com,2013-06-25 10:52:00,
2013-06-25 07:07:00,66.7,66.1,29.79,ENE,67,0.0,-999.0,98,-99.99,,,0.00,Acu-Link.com,2013-06-25 11:07:00,
2013-06-25 07:22:00,67.8,67.2,29.79,ENE,67,0.0,-999.0,98,-99.99,,,0.00,Acu-Link.com,2013-06-25 11:22:00,
2013-06-25 07:37:00,68.9,68.3,29.78,SSE,157,0.0,-999.0,98,-99.99,,,0.00,Acu-Link.com,2013-06-25 11:37:00,
2013-06-25 07:52:00,70.7,70.1,29.79,SSE,157,0.0,-999.0,98,-99.99,,,0.00,Acu-Link.com,2013-06-25 11:52:00,
2013-06-25 08:08:00,72.0,71.4,29.79,South,180,2.2,-999.0,98,-99.99,,,0.00,Acu-Link.com,2013-06-25 12:08:00,
2013-06-25 08:23:00,74.5,73.9,29.79,East,90,2.7,-999.0,98,-99.99,,,0.00,Acu-Link.com,2013-06-25 12:23:00,
2013-06-25 08:38:00,78.6,78.0,29.79,East,90,0.0,-999.0,98,-99.99,,,0.00,Acu-Link.com,2013-06-25 12:38:00,
2013-06-25 08:53:00,82.4,81.8,29.78,NNE,22,0.0,-999.0,98,-99.99,,,0.00,Acu-Link.com,2013-06-25 12:53:00,
2013-06-25 09:08:00,78.8,78.2,29.79,South,180,1.7,-999.0,98,-99.99,,,0.00,Acu-Link.com,2013-06-25 13:08:00,
2013-06-25 09:23:00,80.2,79.6,29.78,South,180,2.2,-999.0,98,-99.99,,,0.00,Acu-Link.com,2013-06-25 13:23:00,
2013-06-25 09:38:00,81.7,81.1,29.78,NW,315,1.1,-999.0,98,-99.99,,,0.00,Acu-Link.com,2013-06-25 13:38:00,
2013-06-25 09:53:00,83.7,83.1,29.78,SSW,202,1.1,-999.0,98,-99.99,,,0.00,Acu-Link.com,2013-06-25 13:53:00,
2013-06-25 10:08:00,84.7,84.1,29.78,WNW,292,0.0,-999.0,98,-99.99,,,0.00,Acu-Link.com,2013-06-25 14:08:00,
2013-06-25 10:23:00,82.9,82.3,29.77,West,270,1.7,-999.0,98,-99.99,,,0.00,Acu-Link.com,2013-06-25 14:23:00,
2013-06-25 10:39:00,82.4,81.8,29.77,SSW,202,0.0,-999.0,98,-99.99,,,0.00,Acu-Link.com,2013-06-25 14:39:00,
2013-06-25 10:54:00,81.9,81.3,29.76,NW,315,2.2,-999.0,98,-99.99,,,0.00,Acu-Link.com,2013-06-25 14:54:00,
2013-06-25 11:09:00,82.9,82.3,29.77,WNW,292,0.0,-999.0,98,-99.99,,,0.00,Acu-Link.com,2013-06-25 15:09:00,
2013-06-25 11:24:00,82.8,82.2,29.76,West,270,0.0,-999.0,98,-99.99,,,0.00,Acu-Link.com,2013-06-25 15:24:00,
2013-06-25 11:39:00,82.9,82.3,29.76,West,270,0.0,-999.0,98,-99.99,,,0.00,Acu-Link.com,2013-06-25 15:39:00,
2013-06-25 11:54:00,82.8,82.2,29.75,West,270,0.0,-999.0,98,-99.99,,,0.00,Acu-Link.com,2013-06-25 15:54:00,
2013-06-25 12:09:00,83.5,82.9,29.75,WNW,292,2.2,-999.0,98,-99.99,,,0.00,Acu-Link.com,2013-06-25 16:09:00,
2013-06-25 12:24:00,79.3,78.7,29.75,SSW,202,1.7,-999.0,98,-99.99,,,0.00,Acu-Link.com,2013-06-25 16:24:00,
2013-06-25 12:39:00,79.0,78.4,29.74,South,180,0.0,-999.0,98,-99.99,,,0.00,Acu-Link.com,2013-06-25 16:39:00,
2013-06-25 12:55:00,82.6,82.0,29.73,West,270,0.0,-999.0,98,-99.99,,,0.00,Acu-Link.com,2013-06-25 16:55:00,
2013-06-25 13:10:00,84.4,83.8,29.71,NNW,337,1.7,-999.0,98,-99.99,,,0.00,Acu-Link.com,2013-06-25 17:10:00,
2013-06-25 13:25:00,83.1,82.5,29.71,WNW,292,2.2,-999.0,98,-99.99,,,0.00,Acu-Link.com,2013-06-25 17:25:00,
2013-06-25 13:40:00,82.2,81.6,29.71,NW,315,1.7,-999.0,98,-99.99,,,0.00,Acu-Link.com,2013-06-25 17:40:00,
2013-06-25 13:55:00,82.2,81.6,29.71,West,270,6.8,-999.0,98,-99.99,,,0.00,Acu-Link.com,2013-06-25 17:55:00,
2013-06-25 14:10:00,74.7,74.1,29.70,WSW,247,1.7,-999.0,98,-99.99,,,0.01,Acu-Link.com,2013-06-25 18:10:00,
2013-06-25 14:25:00,72.3,71.7,29.72,WNW,292,2.7,-999.0,98,-99.99,,,0.81,Acu-Link.com,2013-06-25 18:25:00,
2013-06-25 14:40:00,71.8,71.2,29.71,NW,315,2.7,-999.0,98,-99.99,,,1.04,Acu-Link.com,2013-06-25 18:40:00,
2013-06-25 14:55:00,74.5,73.9,29.71,WNW,292,1.7,-999.0,98,-99.99,,,1.16,Acu-Link.com,2013-06-25 18:55:00,
2013-06-25 15:11:00,75.9,75.3,29.70,WNW,292,0.0,-999.0,98,-99.99,,,1.16,Acu-Link.com,2013-06-25 19:11:00,
2013-06-25 15:26:00,76.3,75.7,29.72,ESE,112,2.7,-999.0,98,-99.99,,,1.16,Acu-Link.com,2013-06-25 19:26:00,
2013-06-25 15:41:00,76.1,75.5,29.71,NNW,337,0.0,-999.0,98,-99.99,,,1.34,Acu-Link.com,2013-06-25 19:41:00,
2013-06-25 15:56:00,76.1,75.5,29.71,NNE,22,0.0,-999.0,98,-99.99,,,1.35,Acu-Link.com,2013-06-25 19:56:00,
2013-06-25 16:11:00,75.0,74.4,29.71,South,180,0.0,-999.0,98,-99.99,,,1.35,Acu-Link.com,2013-06-25 20:11:00,
2013-06-25 16:26:00,75.2,74.6,29.71,West,270,0.0,-999.0,98,-99.99,,,1.45,Acu-Link.com,2013-06-25 20:26:00,
2013-06-25 16:41:00,75.0,74.4,29.69,North,0,0.0,-999.0,98,-99.99,,,1.46,Acu-Link.com,2013-06-25 20:41:00,
2013-06-25 16:56:00,76.5,75.9,29.68,SSE,157,0.0,-999.0,98,-99.99,,,1.46,Acu-Link.com,2013-06-25 20:56:00,
2013-06-25 17:11:00,78.1,77.5,29.68,ENE,67,0.0,-999.0,98,-99.99,,,1.46,Acu-Link.com,2013-06-25 21:11:00,
2013-06-25 17:27:00,78.6,78.0,29.68,WSW,247,0.0,-999.0,98,-99.99,,,1.46,Acu-Link.com,2013-06-25 21:27:00,
2013-06-25 17:42:00,78.3,77.7,29.67,NW,315,0.0,-999.0,98,-99.99,,,1.46,Acu-Link.com,2013-06-25 21:42:00,
2013-06-25 17:57:00,78.4,77.8,29.67,NW,315,0.0,-999.0,98,-99.99,,,1.46,Acu-Link.com,2013-06-25 21:57:00,
2013-06-25 18:12:00,77.9,77.3,29.66,WSW,247,0.0,-999.0,98,-99.99,,,1.46,Acu-Link.com,2013-06-25 22:12:00,
2013-06-25 18:27:00,78.8,78.2,29.67,WSW,247,0.0,-999.0,98,-99.99,,,1.46,Acu-Link.com,2013-06-25 22:27:00,
2013-06-25 18:42:00,78.8,78.2,29.67,WNW,292,1.7,-999.0,98,-99.99,,,1.46,Acu-Link.com,2013-06-25 22:42:00,
2013-06-25 18:57:00,77.9,77.3,29.66,ESE,112,0.0,-999.0,98,-99.99,,,1.46,Acu-Link.com,2013-06-25 22:57:00,
2013-06-25 19:12:00,77.5,76.9,29.66,West,270,0.0,-999.0,98,-99.99,,,1.46,Acu-Link.com,2013-06-25 23:12:00,
2013-06-25 19:27:00,77.0,76.4,29.66,West,270,0.0,-999.0,98,-99.99,,,1.46,Acu-Link.com,2013-06-25 23:27:00,
2013-06-25 19:43:00,76.6,76.0,29.68,WSW,247,0.0,-999.0,98,-99.99,,,1.46,Acu-Link.com,2013-06-25 23:43:00,
2013-06-25 19:58:00,76.3,75.7,29.68,WSW,247,0.0,-999.0,98,-99.99,,,1.46,Acu-Link.com,2013-06-25 23:58:00,
2013-06-25 20:13:00,75.4,74.8,29.68,WSW,247,0.0,-999.0,98,-99.99,,,1.46,Acu-Link.com,2013-06-26 00:13:00,
2013-06-25 20:28:00,74.8,74.2,29.68,WSW,247,0.0,-999.0,98,-99.99,,,1.46,Acu-Link.com,2013-06-26 00:28:00,
2013-06-25 20:43:00,74.1,73.5,29.67,WSW,247,0.0,-999.0,98,-99.99,,,1.46,Acu-Link.com,2013-06-26 00:43:00,
2013-06-25 20:58:00,73.8,73.2,29.67,WSW,247,0.0,-999.0,98,-99.99,,,1.46,Acu-Link.com,2013-06-26 00:58:00,
2013-06-25 21:13:00,73.2,72.6,29.67,WSW,247,0.0,-999.0,98,-99.99,,,1.46,Acu-Link.com,2013-06-26 01:13:00,
2013-06-25 21:28:00,72.9,72.3,29.68,WSW,247,0.0,-999.0,98,-99.99,,,1.46,Acu-Link.com,2013-06-26 01:28:00,
2013-06-25 21:43:00,72.5,71.9,29.69,WSW,247,0.0,-999.0,98,-99.99,,,1.46,Acu-Link.com,2013-06-26 01:43:00,
2013-06-25 21:58:00,72.3,71.7,29.69,ESE,112,0.0,-999.0,98,-99.99,,,1.46,Acu-Link.com,2013-06-26 01:58:00,
2013-06-25 22:14:00,72.5,71.9,29.69,SSW,202,0.0,-999.0,98,-99.99,,,1.46,Acu-Link.com,2013-06-26 02:14:00,
2013-06-25 22:29:00,72.7,72.1,29.69,SE,135,1.7,-999.0,98,-99.99,,,1.46,Acu-Link.com,2013-06-26 02:29:00,
2013-06-25 22:44:00,72.0,71.4,29.70,ESE,112,2.2,-999.0,98,-99.99,,,1.46,Acu-Link.com,2013-06-26 02:44:00,
2013-06-25 22:59:00,70.5,69.9,29.69,South,180,0.0,-999.0,98,-99.99,,,1.54,Acu-Link.com,2013-06-26 02:59:00,
2013-06-25 23:14:00,70.0,69.4,29.68,SW,225,0.0,-999.0,98,-99.99,,,1.63,Acu-Link.com,2013-06-26 03:14:00,
2013-06-25 23:29:00,69.4,68.8,29.68,SE,135,0.0,-999.0,98,-99.99,,,1.63,Acu-Link.com,2013-06-26 03:29:00,
2013-06-25 23:44:00,69.3,68.7,29.69,SSW,202,1.1,-999.0,98,-99.99,,,1.63,Acu-Link.com,2013-06-26 03:44:00,
2013-06-25 23:59:00,69.1,68.5,29.67,South,180,0.0,-999.0,98,-99.99,,,1.63,Acu-Link.com,2013-06-26 03:59:00,